Time;durP1;ratioP1;P1;durP2;ratioP2;P2;SDS_P1;SDS_P2;PMS_P1;PMS_P2;Temp;Humidity;BMP_temperature;BMP_pressure;BME280_temperature;BME280_humidity;BME280_pressure;Samples;Min_cycle;Max_cycle;Signal;HPM_P1;HPM_P2
2023/10/22 00:02:24;;;;;;;0.00;0.00;;;13.10;99.90;;;;;;5005419;28;20049;-65
2023/10/22 00:04:50;;;;;;;0.05;0.05;;;13.10;99.90;;;;;;5003041;28;20046;-65
2023/10/22 00:07:16;;;;;;;0.05;0.05;;;13.20;99.90;;;;;;5008649;28;20046;-65
2023/10/22 00:09:42;;;;;;;0.00;0.00;;;13.10;99.90;;;;;;5002665;28;20414;-66
2023/10/22 00:12:08;;;;;;;0.00;0.00;;;13.00;99.90;;;;;;5004681;28;20042;-65
2023/10/22 00:14:33;;;;;;;0.00;0.00;;;13.00;99.90;;;;;;5000304;28;20096;-65
2023/10/22 00:16:59;;;;;;;0.10;0.10;;;13.00;99.90;;;;;;5005573;28;20085;-65
2023/10/22 00:19:25;;;;;;;0.03;0.03;;;13.00;99.90;;;;;;5003434;28;20129;-65
2023/10/22 00:21:50;;;;;;;0.28;0.28;;;13.10;99.90;;;;;;5003897;28;20038;-65
2023/10/22 00:24:16;;;;;;;0.10;0.10;;;13.10;99.90;;;;;;5000708;28;20050;-65
2023/10/22 00:26:42;;;;;;;0.10;0.10;;;13.00;99.90;;;;;;5017076;28;20049;-65
2023/10/22 00:29:07;;;;;;;0.10;0.10;;;13.10;99.90;;;;;;4996359;28;20081;-65
2023/10/22 00:31:33;;;;;;;0.00;0.00;;;13.10;99.90;;;;;;5006411;28;20136;-65
2023/10/22 00:33:59;;;;;;;0.00;0.00;;;13.10;99.90;;;;;;5001085;28;20490;-65
2023/10/22 00:36:24;;;;;;;0.68;0.68;;;13.10;99.90;;;;;;5006692;28;20108;-65
2023/10/22 00:38:50;;;;;;;0.00;0.00;;;13.10;99.90;;;;;;5007354;28;20077;-65
2023/10/22 00:41:16;;;;;;;0.00;0.00;;;13.10;99.90;;;;;;5001132;28;20474;-65
2023/10/22 00:43:42;;;;;;;0.00;0.00;;;13.10;99.90;;;;;;4996585;28;20137;-65
2023/10/22 00:46:16;;;;;;;0.15;0.15;;;13.20;99.90;;;;;;5008363;28;20120;-65
2023/10/22 00:48:41;;;;;;;0.22;0.22;;;13.10;99.90;;;;;;5003661;28;20077;-65
2023/10/22 00:51:07;;;;;;;0.05;0.05;;;13.10;99.90;;;;;;4999599;28;20085;-65
2023/10/22 00:53:32;;;;;;;0.00;0.00;;;13.10;99.90;;;;;;4993374;28;20426;-65
2023/10/22 00:55:58;;;;;;;0.00;0.00;;;13.00;99.90;;;;;;5005109;28;20052;-65
2023/10/22 00:58:26;;;;;;;0.00;0.00;;;13.00;99.90;;;;;;5005186;28;20042;-65
2023/10/22 01:00:51;;;;;;;0.00;0.00;;;12.90;99.90;;;;;;5003314;28;20058;-65
2023/10/22 01:03:18;;;;;;;0.00;0.00;;;12.90;99.90;;;;;;5007339;28;20056;-66
2023/10/22 01:05:44;;;;;;;0.40;0.40;;;12.80;99.90;;;;;;4999839;28;20146;-65
2023/10/22 01:08:11;;;;;;;0.10;0.10;;;12.80;99.90;;;;;;5000645;28;20067;-65
2023/10/22 01:10:36;;;;;;;0.00;0.00;;;12.70;99.90;;;;;;5008145;28;20036;-65
2023/10/22 01:13:03;;;;;;;0.10;0.10;;;12.70;99.90;;;;;;5004901;28;20457;-66
2023/10/22 01:15:29;;;;;;;0.10;0.10;;;12.60;99.90;;;;;;4994040;28;20042;-65
2023/10/22 01:17:55;;;;;;;0.10;0.10;;;12.60;99.90;;;;;;5004878;28;20042;-65
2023/10/22 01:20:21;;;;;;;0.10;0.10;;;12.60;99.90;;;;;;5009595;28;20076;-65
2023/10/22 01:22:47;;;;;;;0.15;0.15;;;12.60;99.90;;;;;;4997677;28;20482;-65
2023/10/22 01:25:12;;;;;;;0.10;0.10;;;12.60;99.90;;;;;;5008243;28;20041;-66
2023/10/22 01:27:38;;;;;;;0.05;0.05;;;12.50;99.90;;;;;;5011902;28;20073;-66
2023/10/22 01:30:04;;;;;;;0.10;0.10;;;12.50;99.90;;;;;;5000628;28;20058;-66
2023/10/22 01:32:30;;;;;;;0.20;0.20;;;12.40;99.90;;;;;;5001490;28;20050;-65
2023/10/22 01:34:59;;;;;;;0.00;0.00;;;12.50;99.90;;;;;;5007326;28;20049;-65
2023/10/22 01:37:25;;;;;;;0.28;0.28;;;12.50;99.90;;;;;;5001758;28;20450;-66
2023/10/22 01:39:51;;;;;;;0.00;0.00;;;12.40;99.90;;;;;;5006782;28;20133;-66
2023/10/22 01:42:17;;;;;;;0.00;0.00;;;12.40;99.90;;;;;;5008873;28;20058;-65
2023/10/22 01:44:43;;;;;;;0.20;0.20;;;12.40;99.90;;;;;;5000246;28;20049;-66
2023/10/22 01:47:10;;;;;;;0.08;0.08;;;12.50;99.90;;;;;;5005326;28;20060;-66
2023/10/22 01:49:36;;;;;;;0.17;0.17;;;12.50;99.90;;;;;;4996278;28;20186;-66
2023/10/22 01:52:02;;;;;;;2.08;1.90;;;12.40;99.90;;;;;;5004495;28;20241;-65
2023/10/22 01:54:28;;;;;;;0.10;0.10;;;12.50;99.90;;;;;;5004300;28;20045;-66
2023/10/22 01:56:53;;;;;;;0.10;0.10;;;12.40;99.90;;;;;;5006748;28;20128;-65
2023/10/22 01:59:19;;;;;;;0.03;0.03;;;12.40;99.90;;;;;;5011595;28;20473;-66
2023/10/22 02:01:44;;;;;;;0.00;0.00;;;12.40;99.90;;;;;;5004717;28;20068;-66
2023/10/22 02:04:10;;;;;;;0.10;0.10;;;12.40;99.90;;;;;;5005911;28;20049;-66
2023/10/22 02:06:36;;;;;;;0.10;0.10;;;12.40;99.90;;;;;;5008993;28;20753;-66
2023/10/22 02:09:01;;;;;;;0.00;0.00;;;12.40;99.90;;;;;;5004282;28;20054;-66
2023/10/22 02:11:27;;;;;;;0.10;0.10;;;12.40;99.90;;;;;;5010234;28;20048;-66
2023/10/22 02:13:53;;;;;;;0.00;0.00;;;12.40;99.90;;;;;;5009326;28;20052;-66
2023/10/22 02:16:19;;;;;;;0.10;0.10;;;12.40;99.90;;;;;;5003584;28;20037;-66
2023/10/22 02:18:45;;;;;;;0.10;0.10;;;12.40;99.90;;;;;;5010155;28;20485;-66
2023/10/22 02:21:11;;;;;;;0.10;0.10;;;12.50;99.90;;;;;;5006424;28;20501;-66
2023/10/22 02:23:39;;;;;;;0.10;0.10;;;12.40;99.90;;;;;;5000147;28;20049;-66
2023/10/22 02:26:05;;;;;;;0.10;0.10;;;12.40;99.90;;;;;;5002787;28;20049;-66
2023/10/22 02:28:31;;;;;;;0.00;0.00;;;12.40;99.90;;;;;;5003236;28;20065;-66
2023/10/22 02:30:56;;;;;;;0.10;0.10;;;12.40;99.90;;;;;;5006187;28;20085;-65
2023/10/22 02:33:22;;;;;;;0.10;0.10;;;12.50;99.90;;;;;;5002779;28;20520;-65
2023/10/22 02:35:48;;;;;;;0.20;0.20;;;12.40;99.90;;;;;;5008690;28;20104;-66
2023/10/22 02:38:17;;;;;;;0.00;0.00;;;12.40;99.90;;;;;;5004161;28;20411;-65
2023/10/22 02:40:44;;;;;;;0.10;0.10;;;12.40;99.90;;;;;;5005305;28;20042;-66
2023/10/22 02:43:13;;;;;;;0.05;0.05;;;12.40;99.90;;;;;;5008395;28;20050;-66
2023/10/22 02:45:48;;;;;;;0.00;0.00;;;12.50;99.90;;;;;;5007681;28;20038;-66
2023/10/22 02:48:14;;;;;;;0.08;0.08;;;12.40;99.90;;;;;;4999294;28;20050;-66
2023/10/22 02:50:39;;;;;;;1.00;0.55;;;12.50;99.90;;;;;;5008991;28;20398;-66
2023/10/22 02:53:06;;;;;;;0.00;0.00;;;12.40;99.90;;;;;;5027243;28;21255;-66
2023/10/22 02:55:32;;;;;;;0.10;0.10;;;12.40;99.90;;;;;;5005791;28;20497;-66
2023/10/22 02:57:58;;;;;;;0.10;0.10;;;12.40;99.90;;;;;;5000383;28;20165;-66
2023/10/22 03:00:23;;;;;;;0.00;0.00;;;12.40;99.90;;;;;;5011354;28;20104;-66
2023/10/22 03:02:49;;;;;;;0.10;0.10;;;12.40;99.90;;;;;;5003013;28;20213;-66
2023/10/22 03:05:14;;;;;;;0.00;0.00;;;12.40;99.90;;;;;;5008992;28;20069;-66
2023/10/22 03:07:41;;;;;;;0.00;0.00;;;12.40;99.90;;;;;;5011663;28;20045;-66
2023/10/22 03:10:07;;;;;;;0.00;0.00;;;12.40;99.90;;;;;;5009888;28;20441;-66
2023/10/22 03:12:32;;;;;;;0.10;0.10;;;12.40;99.90;;;;;;5002516;28;20053;-66
2023/10/22 03:14:58;;;;;;;0.00;0.00;;;12.40;99.90;;;;;;5007197;28;20037;-66
2023/10/22 03:17:24;;;;;;;0.00;0.00;;;12.40;99.90;;;;;;4996707;28;20112;-66
2023/10/22 03:19:49;;;;;;;0.75;0.45;;;12.40;99.90;;;;;;5011073;28;20060;-65
2023/10/22 03:22:15;;;;;;;0.05;0.05;;;12.40;99.90;;;;;;5007999;28;20042;-66
2023/10/22 03:24:40;;;;;;;1.75;0.55;;;12.40;99.90;;;;;;5002038;28;20045;-66
2023/10/22 03:27:06;;;;;;;0.10;0.10;;;12.40;99.90;;;;;;5015057;28;20076;-66
2023/10/22 03:29:32;;;;;;;0.20;0.20;;;12.40;99.90;;;;;;5008430;28;20423;-66
2023/10/22 03:31:58;;;;;;;0.10;0.10;;;12.40;99.90;;;;;;5006865;28;20050;-66
2023/10/22 03:34:24;;;;;;;0.20;0.20;;;12.40;99.90;;;;;;4998160;28;20038;-66
2023/10/22 03:36:50;;;;;;;0.10;0.10;;;12.40;99.90;;;;;;5010924;28;20499;-66
2023/10/22 03:39:17;;;;;;;0.30;0.25;;;12.40;99.90;;;;;;5010014;28;20077;-66
2023/10/22 03:41:43;;;;;;;0.10;0.10;;;12.40;99.90;;;;;;5004501;28;20121;-66
2023/10/22 03:44:09;;;;;;;0.10;0.10;;;12.40;99.90;;;;;;5000572;28;20057;-66
2023/10/22 03:46:35;;;;;;;0.10;0.10;;;12.50;99.90;;;;;;4999271;28;20054;-67
2023/10/22 03:49:00;;;;;;;0.00;0.00;;;12.50;99.90;;;;;;5001301;28;20048;-66
2023/10/22 03:51:26;;;;;;;0.10;0.10;;;12.50;99.90;;;;;;5001459;28;20104;-66
2023/10/22 03:53:56;;;;;;;0.00;0.00;;;12.50;99.90;;;;;;5005124;28;20409;-66
2023/10/22 03:56:22;;;;;;;0.10;0.10;;;12.50;99.90;;;;;;5007555;28;20492;-66
2023/10/22 03:58:48;;;;;;;0.00;0.00;;;12.50;99.90;;;;;;5007545;28;20489;-66
2023/10/22 04:01:13;;;;;;;0.00;0.00;;;12.50;99.90;;;;;;5003575;28;20116;-66
2023/10/22 04:03:39;;;;;;;0.00;0.00;;;12.50;99.90;;;;;;5007901;28;20037;-66
2023/10/22 04:06:04;;;;;;;0.10;0.10;;;12.50;99.90;;;;;;5003886;28;20049;-66
2023/10/22 04:08:30;;;;;;;0.10;0.10;;;12.50;99.90;;;;;;5003197;28;20100;-66
2023/10/22 04:10:56;;;;;;;0.00;0.00;;;12.50;99.90;;;;;;5004962;28;20077;-66
2023/10/22 04:13:22;;;;;;;0.30;0.30;;;12.50;99.90;;;;;;5008176;28;20053;-66
2023/10/22 04:15:48;;;;;;;0.10;0.10;;;12.50;99.90;;;;;;5000686;28;20073;-66
2023/10/22 04:18:16;;;;;;;0.00;0.00;;;12.50;99.90;;;;;;5005181;28;20035;-66
2023/10/22 04:20:42;;;;;;;0.00;0.00;;;12.60;99.90;;;;;;5007760;28;20128;-66
2023/10/22 04:23:10;;;;;;;0.00;0.00;;;12.60;99.90;;;;;;5007360;28;20132;-66
2023/10/22 04:25:45;;;;;;;0.10;0.10;;;12.60;99.90;;;;;;4998411;28;20053;-66
2023/10/22 04:28:12;;;;;;;0.10;0.10;;;12.60;99.90;;;;;;5001565;28;20074;-66
2023/10/22 04:30:39;;;;;;;0.15;0.15;;;12.60;99.90;;;;;;5002003;28;20054;-66
2023/10/22 04:33:06;;;;;;;0.20;0.20;;;12.60;99.90;;;;;;5000321;28;20075;-66
2023/10/22 04:35:33;;;;;;;0.00;0.00;;;12.60;99.90;;;;;;5000787;28;20053;-66
2023/10/22 04:38:00;;;;;;;0.00;0.00;;;12.60;99.90;;;;;;5000525;28;20478;-66
2023/10/22 04:40:27;;;;;;;0.10;0.10;;;12.70;99.90;;;;;;5001195;28;20053;-66
2023/10/22 04:42:57;;;;;;;0.13;0.13;;;12.70;99.90;;;;;;5003440;28;20123;-66
2023/10/22 04:45:22;;;;;;;0.10;0.10;;;12.70;99.90;;;;;;5009673;28;20057;-66
2023/10/22 04:47:48;;;;;;;0.10;0.10;;;12.70;99.90;;;;;;5004653;28;20050;-66
2023/10/22 04:50:13;;;;;;;0.10;0.10;;;12.70;99.90;;;;;;5004714;28;20133;-66
2023/10/22 04:52:39;;;;;;;0.10;0.10;;;12.70;99.90;;;;;;5010878;28;20042;-66
2023/10/22 04:55:05;;;;;;;0.15;0.10;;;12.70;99.90;;;;;;4996833;28;20042;-66
2023/10/22 04:57:31;;;;;;;0.10;0.10;;;12.70;99.90;;;;;;5003136;28;20041;-66
2023/10/22 04:59:56;;;;;;;0.65;0.65;;;12.70;99.90;;;;;;5003322;28;20383;-66
2023/10/22 05:02:22;;;;;;;2.15;1.17;;;12.70;99.90;;;;;;4994715;28;20050;-66
2023/10/22 05:04:49;;;;;;;0.10;0.10;;;12.70;99.90;;;;;;5002345;28;20042;-66
2023/10/22 05:07:15;;;;;;;0.00;0.00;;;12.70;99.90;;;;;;4998544;28;20088;-66
2023/10/22 05:09:41;;;;;;;0.10;0.10;;;12.70;99.90;;;;;;5004920;28;20041;-66
2023/10/22 05:12:07;;;;;;;0.13;0.13;;;12.70;99.90;;;;;;5009491;28;20054;-66
2023/10/22 05:14:32;;;;;;;3.30;0.52;;;12.70;99.90;;;;;;5007562;28;20053;-66
2023/10/22 05:16:58;;;;;;;0.00;0.00;;;12.70;99.90;;;;;;4992919;28;20046;-66
2023/10/22 05:19:24;;;;;;;0.13;0.13;;;12.80;99.90;;;;;;5004968;28;20049;-65
2023/10/22 05:21:50;;;;;;;0.10;0.10;;;12.70;99.90;;;;;;4999271;28;20053;-65
2023/10/22 05:24:16;;;;;;;0.10;0.10;;;12.60;99.90;;;;;;5003852;28;20498;-66
2023/10/22 05:26:41;;;;;;;0.00;0.00;;;12.50;99.90;;;;;;5014344;28;20057;-66
2023/10/22 05:29:07;;;;;;;0.08;0.08;;;12.50;99.90;;;;;;4998667;28;20073;-66
2023/10/22 05:31:33;;;;;;;0.50;0.50;;;12.40;99.90;;;;;;4998241;28;20082;-66
2023/10/22 05:33:58;;;;;;;0.00;0.00;;;12.40;99.90;;;;;;4999810;28;20080;-66
2023/10/22 05:36:25;;;;;;;0.40;0.40;;;12.30;99.90;;;;;;4995135;28;20039;-66
2023/10/22 05:38:51;;;;;;;0.10;0.10;;;12.30;99.90;;;;;;5005163;28;20054;-66
2023/10/22 05:41:21;;;;;;;0.22;0.22;;;12.20;99.90;;;;;;5001339;28;20095;-66
2023/10/22 05:43:48;;;;;;;0.00;0.00;;;12.20;99.90;;;;;;5003806;28;20085;-65
2023/10/22 05:46:14;;;;;;;0.10;0.10;;;12.20;99.90;;;;;;5009732;28;20030;-66
2023/10/22 05:48:40;;;;;;;0.00;0.00;;;12.20;99.90;;;;;;5001741;28;20100;-65
2023/10/22 05:51:05;;;;;;;0.10;0.10;;;12.20;99.90;;;;;;4996587;28;20048;-66
2023/10/22 05:53:31;;;;;;;0.00;0.00;;;12.20;99.90;;;;;;5000210;28;20147;-65
2023/10/22 05:55:57;;;;;;;0.10;0.10;;;12.20;99.90;;;;;;4997379;28;20041;-65
2023/10/22 05:58:26;;;;;;;0.30;0.30;;;12.20;99.90;;;;;;5004433;28;20054;-65
2023/10/22 06:00:53;;;;;;;0.00;0.00;;;12.20;99.90;;;;;;5000353;28;20487;-65
2023/10/22 06:03:18;;;;;;;0.00;0.00;;;12.20;99.90;;;;;;5006681;28;20080;-65
2023/10/22 06:05:44;;;;;;;0.10;0.10;;;12.20;99.90;;;;;;5008763;28;20081;-65
2023/10/22 06:08:10;;;;;;;0.75;0.75;;;12.20;99.90;;;;;;5005513;28;20042;-65
2023/10/22 06:10:43;;;;;;;0.03;0.03;;;12.30;99.90;;;;;;5003771;28;20074;-66
2023/10/22 06:13:09;;;;;;;1.50;1.40;;;12.30;99.90;;;;;;5003958;28;20123;-65
2023/10/22 06:15:39;;;;;;;0.10;0.10;;;12.30;99.90;;;;;;4996557;28;20297;-66
2023/10/22 06:18:05;;;;;;;2.00;1.10;;;12.30;99.90;;;;;;5006383;28;20046;-66
2023/10/22 06:20:32;;;;;;;0.10;0.10;;;12.20;99.90;;;;;;5003005;28;20853;-66
2023/10/22 06:22:57;;;;;;;0.10;0.10;;;12.20;99.90;;;;;;5004838;28;20124;-65
2023/10/22 06:25:23;;;;;;;0.00;0.00;;;12.20;99.90;;;;;;5006261;28;20489;-65
2023/10/22 06:27:50;;;;;;;0.00;0.00;;;12.20;99.90;;;;;;5000277;28;20479;-65
2023/10/22 06:30:21;;;;;;;0.45;0.45;;;12.10;99.90;;;;;;5002093;28;20054;-65
2023/10/22 06:32:53;;;;;;;0.00;0.00;;;12.10;99.90;;;;;;5000145;28;20045;-65
2023/10/22 06:35:20;;;;;;;0.30;0.30;;;12.10;99.90;;;;;;5004735;28;20478;-65
2023/10/22 06:37:50;;;;;;;0.10;0.10;;;12.00;99.90;;;;;;5002659;28;20084;-65
2023/10/22 06:40:16;;;;;;;0.20;0.20;;;12.00;99.90;;;;;;5006302;28;20050;-65
2023/10/22 06:42:42;;;;;;;0.00;0.00;;;12.00;99.90;;;;;;5006864;28;20069;-66
2023/10/22 06:45:08;;;;;;;0.10;0.10;;;12.00;99.90;;;;;;5005629;28;20053;-65
2023/10/22 06:47:36;;;;;;;0.00;0.00;;;12.00;99.90;;;;;;5009599;28;20046;-65
2023/10/22 06:50:03;;;;;;;0.10;0.10;;;12.00;99.90;;;;;;5003610;28;20042;-66
2023/10/22 06:52:28;;;;;;;0.10;0.10;;;12.00;99.90;;;;;;4996670;28;20046;-66
2023/10/22 06:54:54;;;;;;;0.10;0.10;;;12.00;99.90;;;;;;5007473;28;20034;-65
2023/10/22 06:57:19;;;;;;;0.10;0.10;;;12.00;99.90;;;;;;5011139;28;20045;-65
2023/10/22 06:59:48;;;;;;;0.10;0.10;;;12.00;99.90;;;;;;5002304;28;20389;-65
2023/10/22 07:02:13;;;;;;;0.00;0.00;;;12.00;99.90;;;;;;5007527;28;20041;-66
2023/10/22 07:04:40;;;;;;;0.38;0.38;;;12.00;99.90;;;;;;5001368;28;20394;-66
2023/10/22 07:07:06;;;;;;;0.05;0.05;;;12.00;99.90;;;;;;5007321;28;20048;-65
2023/10/22 07:09:32;;;;;;;0.40;0.40;;;12.00;99.90;;;;;;5004827;28;20046;-65
2023/10/22 07:11:57;;;;;;;0.00;0.00;;;12.00;99.90;;;;;;5005048;28;20540;-65
2023/10/22 07:14:23;;;;;;;0.10;0.10;;;12.00;99.90;;;;;;5007187;28;20092;-65
2023/10/22 07:16:49;;;;;;;0.75;0.75;;;12.00;99.90;;;;;;5004863;28;20069;-65
2023/10/22 07:19:14;;;;;;;0.10;0.10;;;12.00;99.90;;;;;;5009440;28;20515;-65
2023/10/22 07:21:40;;;;;;;0.10;0.10;;;12.00;99.90;;;;;;5009301;28;20521;-65
2023/10/22 07:24:06;;;;;;;0.55;0.55;;;12.00;99.90;;;;;;5002898;28;20089;-65
2023/10/22 07:26:32;;;;;;;0.10;0.10;;;12.00;99.90;;;;;;5007279;28;20034;-65
2023/10/22 07:28:58;;;;;;;0.00;0.00;;;12.00;99.90;;;;;;5010337;28;20050;-65
2023/10/22 07:31:24;;;;;;;0.22;0.22;;;12.00;99.90;;;;;;5004299;28;20050;-65
2023/10/22 07:33:50;;;;;;;0.10;0.10;;;12.00;99.90;;;;;;5010920;28;20050;-65
2023/10/22 07:36:15;;;;;;;0.10;0.10;;;12.00;99.90;;;;;;5005506;28;20045;-65
2023/10/22 07:38:41;;;;;;;0.17;0.17;;;12.10;99.90;;;;;;5005188;28;20034;-65
2023/10/22 07:41:15;;;;;;;0.10;0.10;;;12.10;99.90;;;;;;5008349;28;20042;-65
2023/10/22 07:43:40;;;;;;;;;;;12.10;99.90;;;;;;5000437;28;20057;-65
2023/10/22 07:46:07;;;;;;;0.10;0.10;;;12.10;99.90;;;;;;5009126;28;19926;-65
2023/10/22 07:48:32;;;;;;;0.00;0.00;;;12.10;99.90;;;;;;5006875;28;20413;-65
2023/10/22 07:51:11;;;;;;;0.10;0.10;;;12.10;99.90;;;;;;5009630;28;20045;-65
2023/10/22 07:53:37;;;;;;;0.00;0.00;;;12.10;99.90;;;;;;4999830;28;20445;-65
2023/10/22 07:56:05;;;;;;;1.55;0.73;;;12.20;99.90;;;;;;5009367;28;20045;-65
2023/10/22 07:58:31;;;;;;;0.10;0.10;;;12.20;99.90;;;;;;5003124;28;20516;-65
2023/10/22 08:00:56;;;;;;;0.15;0.15;;;12.20;99.90;;;;;;5021607;28;20054;-65
2023/10/22 08:03:22;;;;;;;0.00;0.00;;;12.30;99.90;;;;;;4998299;28;20088;-65
2023/10/22 08:05:47;;;;;;;0.00;0.00;;;12.30;99.90;;;;;;5006730;28;20041;-65
2023/10/22 08:08:13;;;;;;;0.28;0.28;;;12.20;99.90;;;;;;5007003;28;20100;-65
2023/10/22 08:10:38;;;;;;;0.00;0.00;;;12.20;99.90;;;;;;4999075;28;20126;-65
2023/10/22 08:13:04;;;;;;;0.10;0.10;;;12.20;99.90;;;;;;5005468;28;20054;-65
2023/10/22 08:15:29;;;;;;;0.00;0.00;;;12.20;99.90;;;;;;5005253;28;20114;-65
2023/10/22 08:17:55;;;;;;;0.38;0.38;;;12.30;99.90;;;;;;5009614;28;20061;-65
2023/10/22 08:20:20;;;;;;;0.35;0.35;;;12.30;99.90;;;;;;5002328;28;20053;-65
2023/10/22 08:22:46;;;;;;;0.10;0.10;;;12.30;99.90;;;;;;5006219;28;20398;-65
2023/10/22 08:25:12;;;;;;;0.00;0.00;;;12.30;99.90;;;;;;5005621;28;20054;-65
2023/10/22 08:27:37;;;;;;;0.00;0.00;;;12.30;99.90;;;;;;5000826;28;20050;-65
2023/10/22 08:30:04;;;;;;;0.10;0.10;;;12.40;99.90;;;;;;5013334;28;20052;-65
2023/10/22 08:32:29;;;;;;;0.10;0.10;;;12.30;99.90;;;;;;5006144;28;20050;-64
2023/10/22 08:34:55;;;;;;;0.10;0.10;;;12.40;99.90;;;;;;4999356;28;20054;-64
2023/10/22 08:37:20;;;;;;;0.10;0.10;;;12.40;99.90;;;;;;5003569;28;20548;-65
2023/10/22 08:39:46;;;;;;;0.00;0.00;;;12.40;99.90;;;;;;5005610;28;20402;-64
2023/10/22 08:42:16;;;;;;;0.00;0.00;;;12.40;99.90;;;;;;5000680;28;20037;-65
2023/10/22 08:44:45;;;;;;;0.00;0.00;;;12.40;99.90;;;;;;5006186;28;20080;-64
2023/10/22 08:47:11;;;;;;;0.20;0.20;;;12.50;99.90;;;;;;5004663;28;20042;-65
2023/10/22 08:49:40;;;;;;;0.00;0.00;;;12.60;99.90;;;;;;4999966;28;20069;-64
2023/10/22 08:52:07;;;;;;;0.00;0.00;;;12.60;99.90;;;;;;4999163;28;20049;-65
2023/10/22 08:54:33;;;;;;;0.10;0.10;;;12.70;99.90;;;;;;5000655;28;20508;-65
2023/10/22 08:56:59;;;;;;;0.10;0.10;;;12.70;99.90;;;;;;4997064;28;20042;-64
2023/10/22 08:59:26;;;;;;;0.10;0.10;;;12.70;99.90;;;;;;5004136;28;20034;-64
2023/10/22 09:01:52;;;;;;;0.10;0.10;;;12.70;99.90;;;;;;4996261;28;20437;-64
2023/10/22 09:04:18;;;;;;;0.10;0.10;;;12.80;99.90;;;;;;4999672;28;20050;-65
2023/10/22 09:06:43;;;;;;;0.05;0.05;;;12.70;99.90;;;;;;5009753;28;20045;-65
2023/10/22 09:09:26;;;;;;;0.10;0.10;;;12.80;99.90;;;;;;5018899;28;20057;-65
2023/10/22 09:11:55;;;;;;;0.10;0.10;;;12.80;99.90;;;;;;4997719;28;20105;-64
2023/10/22 09:14:22;;;;;;;0.00;0.00;;;12.80;99.90;;;;;;5002479;28;20106;-64
2023/10/22 09:16:49;;;;;;;0.00;0.00;;;12.90;99.90;;;;;;5003454;28;20034;-65
2023/10/22 09:19:15;;;;;;;0.20;0.20;;;12.90;99.90;;;;;;5002704;28;20480;-64
2023/10/22 09:21:44;;;;;;;0.10;0.10;;;12.90;99.90;;;;;;5001539;28;20120;-65
2023/10/22 09:24:11;;;;;;;0.00;0.00;;;12.90;99.90;;;;;;5021080;28;20522;-65
2023/10/22 09:26:46;;;;;;;0.10;0.10;;;13.00;99.90;;;;;;5010473;28;20049;-65
2023/10/22 09:29:12;;;;;;;0.00;0.00;;;13.10;99.90;;;;;;4999954;28;20080;-65
2023/10/22 09:31:38;;;;;;;0.00;0.00;;;13.30;99.90;;;;;;5005614;28;20038;-64
2023/10/22 09:34:03;;;;;;;0.10;0.10;;;13.90;99.90;;;;;;5002075;28;20038;-64
2023/10/22 09:36:29;;;;;;;0.00;0.00;;;14.60;99.90;;;;;;5008680;28;20433;-64
2023/10/22 09:38:56;;;;;;;0.10;0.10;;;15.30;99.90;;;;;;5005010;28;20038;-65
2023/10/22 09:41:27;;;;;;;0.00;0.00;;;15.80;99.90;;;;;;4999646;28;20069;-65
2023/10/22 09:43:54;;;;;;;0.00;0.00;;;15.80;99.90;;;;;;5007436;28;20046;-64
2023/10/22 09:46:20;;;;;;;1.17;1.02;;;15.50;99.90;;;;;;5004938;28;20038;-65
2023/10/22 09:48:48;;;;;;;0.00;0.00;;;15.30;99.90;;;;;;5003057;28;20132;-65
2023/10/22 09:51:15;;;;;;;0.43;0.43;;;15.00;99.90;;;;;;4997999;28;20096;-65
2023/10/22 09:53:54;;;;;;;0.05;0.05;;;14.90;99.90;;;;;;5003629;28;20038;-65
2023/10/22 09:56:21;;;;;;;0.00;0.00;;;14.70;99.90;;;;;;5000600;28;20045;-65
2023/10/22 09:58:56;;;;;;;0.00;0.00;;;14.60;99.90;;;;;;5006943;28;20037;-65
2023/10/22 10:01:23;;;;;;;0.00;0.00;;;14.50;99.90;;;;;;4996163;28;20569;-65
2023/10/22 10:03:49;;;;;;;0.10;0.10;;;14.40;99.90;;;;;;4998267;28;20045;-65
2023/10/22 10:06:15;;;;;;;0.08;0.08;;;14.30;99.90;;;;;;5001047;28;20061;-65
2023/10/22 10:08:42;;;;;;;0.00;0.00;;;14.20;99.90;;;;;;4999980;28;20398;-65
2023/10/22 10:11:11;;;;;;;0.08;0.08;;;14.30;99.90;;;;;;5004635;28;20053;-64
2023/10/22 10:13:37;;;;;;;0.00;0.00;;;14.20;99.90;;;;;;5004270;28;20050;-64
2023/10/22 10:16:06;;;;;;;0.05;0.05;;;14.20;99.90;;;;;;5002114;28;20046;-64
2023/10/22 10:19:03;;;;;;;0.03;0.03;;;14.30;99.90;;;;;;5009657;28;20089;-64
2023/10/22 10:21:36;;;;;;;0.00;0.00;;;14.40;99.90;;;;;;5006677;28;20057;-65
2023/10/22 10:24:21;;;;;;;0.10;0.10;;;14.40;99.90;;;;;;5000744;28;20046;-64
2023/10/22 10:26:50;;;;;;;0.00;0.00;;;14.50;99.90;;;;;;5004672;28;20084;-64
2023/10/22 10:29:16;;;;;;;0.00;0.00;;;14.50;99.90;;;;;;4998548;28;20057;-64
2023/10/22 10:31:47;;;;;;;0.00;0.00;;;14.50;99.90;;;;;;5005077;28;20070;-64
2023/10/22 10:34:36;;;;;;;0.00;0.00;;;14.50;99.90;;;;;;5009944;28;20050;-64
2023/10/22 10:37:11;;;;;;;0.10;0.10;;;14.50;99.90;;;;;;5000720;28;20045;-64
2023/10/22 10:39:40;;;;;;;0.00;0.00;;;14.40;99.90;;;;;;5007031;28;20129;-64
2023/10/22 10:42:06;;;;;;;0.00;0.00;;;14.20;99.90;;;;;;5006963;28;20379;-64
2023/10/22 10:44:52;;;;;;;0.10;0.10;;;14.10;99.90;;;;;;5026426;28;20103;-64
2023/10/22 10:47:20;;;;;;;0.10;0.10;;;14.10;99.90;;;;;;5000682;28;20053;-64
2023/10/22 10:50:10;;;;;;;1.55;1.17;;;14.00;99.90;;;;;;5003589;28;20184;-64
2023/10/22 10:52:41;;;;;;;0.10;0.10;;;14.00;99.90;;;;;;5007883;28;20050;-64
2023/10/22 10:55:09;;;;;;;0.10;0.10;;;14.10;99.90;;;;;;5005164;28;20140;-64
2023/10/22 10:57:37;;;;;;;0.10;0.10;;;14.00;99.90;;;;;;5012213;28;20529;-64
2023/10/22 11:00:09;;;;;;;0.03;0.03;;;14.00;99.90;;;;;;5009098;28;20045;-64
2023/10/22 11:02:46;;;;;;;0.05;0.05;;;14.10;99.90;;;;;;5000300;28;20043;-64
2023/10/22 11:05:12;;;;;;;0.00;0.00;;;14.00;99.90;;;;;;5004313;28;20054;-64
2023/10/22 11:07:39;;;;;;;0.00;0.00;;;14.00;99.90;;;;;;5003717;28;20064;-65
2023/10/22 11:10:15;;;;;;;0.00;0.00;;;13.90;99.90;;;;;;4997948;28;20045;-64
2023/10/22 11:12:42;;;;;;;0.00;0.00;;;13.90;99.90;;;;;;5010207;28;20042;-64
2023/10/22 11:15:10;;;;;;;0.00;0.00;;;13.90;99.90;;;;;;5002953;28;20132;-64
2023/10/22 11:17:37;;;;;;;0.00;0.00;;;13.80;99.90;;;;;;5004731;28;20089;-64
2023/10/22 11:20:04;;;;;;;0.10;0.10;;;13.80;99.90;;;;;;5001480;28;20517;-64
2023/10/22 11:22:31;;;;;;;0.00;0.00;;;13.80;99.90;;;;;;5004654;28;20045;-64
2023/10/22 11:25:00;;;;;;;0.10;0.10;;;13.70;99.90;;;;;;5013493;28;20403;-64
2023/10/22 11:27:26;;;;;;;0.00;0.00;;;13.80;99.90;;;;;;5004817;28;20121;-64
2023/10/22 11:29:51;;;;;;;0.00;0.00;;;13.90;99.90;;;;;;5002650;28;20095;-64
2023/10/22 11:32:21;;;;;;;0.30;0.30;;;14.10;99.90;;;;;;5010741;28;20044;-64
2023/10/22 11:34:59;;;;;;;0.05;0.05;;;14.20;99.90;;;;;;5010177;28;20045;-64
2023/10/22 11:37:37;;;;;;;0.10;0.10;;;14.70;99.90;;;;;;4994770;28;20046;-65
2023/10/22 11:40:31;;;;;;;0.00;0.00;;;15.50;99.90;;;;;;5004133;28;20387;-65
2023/10/22 11:42:59;;;;;;;;;;;16.00;99.90;;;;;;5010334;28;20045;-65
2023/10/22 11:45:31;;;;;;;0.10;0.10;;;16.40;99.90;;;;;;4997875;28;19979;-65
2023/10/22 11:48:11;;;;;;;0.00;0.00;;;16.60;99.90;;;;;;5009151;28;20045;-65
2023/10/22 11:50:37;;;;;;;0.00;0.00;;;16.90;99.90;;;;;;5003842;28;20129;-65
2023/10/22 11:53:02;;;;;;;0.05;0.05;;;17.10;99.90;;;;;;5000473;28;20125;-64
2023/10/22 11:55:28;;;;;;;0.10;0.10;;;16.90;99.90;;;;;;5008760;28;20379;-65
2023/10/22 11:57:54;;;;;;;0.00;0.00;;;17.00;99.90;;;;;;5006622;28;20050;-64
2023/10/22 12:00:20;;;;;;;0.00;0.00;;;17.20;99.90;;;;;;4997676;28;20045;-65
2023/10/22 12:02:45;;;;;;;0.00;0.00;;;17.00;99.90;;;;;;4997710;28;20054;-65
2023/10/22 12:05:12;;;;;;;0.00;0.00;;;16.80;99.90;;;;;;5000792;28;20131;-64
2023/10/22 12:07:38;;;;;;;0.05;0.05;;;16.50;99.90;;;;;;5007489;28;20046;-64
2023/10/22 12:10:06;;;;;;;0.00;0.00;;;16.70;99.90;;;;;;4996330;28;20061;-63
2023/10/22 12:12:32;;;;;;;0.20;0.20;;;16.60;99.90;;;;;;5007551;28;20069;-64
2023/10/22 12:14:58;;;;;;;0.10;0.10;;;16.50;99.90;;;;;;4999022;28;20072;-64
2023/10/22 12:17:23;;;;;;;0.00;0.00;;;16.20;99.90;;;;;;5006805;28;20450;-64
2023/10/22 12:19:49;;;;;;;0.10;0.10;;;16.20;99.90;;;;;;5002663;28;20053;-64
2023/10/22 12:22:14;;;;;;;0.00;0.00;;;16.40;99.90;;;;;;5007525;28;20056;-64
2023/10/22 12:24:40;;;;;;;0.00;0.00;;;16.70;99.90;;;;;;4995604;28;20038;-65
2023/10/22 12:27:05;;;;;;;0.00;0.00;;;16.70;99.90;;;;;;5007633;28;20335;-64
2023/10/22 12:29:31;;;;;;;0.00;0.00;;;17.10;99.90;;;;;;4999504;28;20141;-65
2023/10/22 12:31:57;;;;;;;0.00;0.00;;;17.50;99.90;;;;;;5005975;28;20061;-64
2023/10/22 12:34:22;;;;;;;0.10;0.10;;;17.80;99.90;;;;;;5009689;28;20501;-64
2023/10/22 12:36:48;;;;;;;0.00;0.00;;;18.10;99.90;;;;;;5004384;28;20047;-64
2023/10/22 12:39:13;;;;;;;0.05;0.05;;;18.20;99.90;;;;;;5006835;28;20049;-64
2023/10/22 12:41:39;;;;;;;0.00;0.00;;;18.20;99.90;;;;;;5002119;28;20501;-64
2023/10/22 12:44:05;;;;;;;0.10;0.10;;;18.20;99.90;;;;;;5004018;28;20460;-64
2023/10/22 12:46:30;;;;;;;0.30;0.10;;;18.40;99.90;;;;;;4999976;28;20094;-65
2023/10/22 12:48:56;;;;;;;0.00;0.00;;;18.60;99.90;;;;;;5006999;28;20571;-64